sensor_id;sensor_type;location;lat;lon;timestamp;P1;durP1;ratioP1;P2;durP2;ratioP2
7495;SDS011;3789;47.064;15.482;2023-12-22T00:00:45;1.70;;;1.50;;
7495;SDS011;3789;47.064;15.482;2023-12-22T00:03:14;1.30;;;1.20;;
7495;SDS011;3789;47.064;15.482;2023-12-22T00:05:42;1.00;;;1.00;;
7495;SDS011;3789;47.064;15.482;2023-12-22T00:08:09;1.23;;;1.10;;
7495;SDS011;3789;47.064;15.482;2023-12-22T00:10:37;1.20;;;1.10;;
7495;SDS011;3789;47.064;15.482;2023-12-22T00:13:04;1.20;;;1.10;;
7495;SDS011;3789;47.064;15.482;2023-12-22T00:15:32;1.30;;;1.20;;
7495;SDS011;3789;47.064;15.482;2023-12-22T00:17:59;1.27;;;1.17;;
7495;SDS011;3789;47.064;15.482;2023-12-22T00:20:27;1.37;;;1.27;;
7495;SDS011;3789;47.064;15.482;2023-12-22T00:22:55;1.33;;;1.20;;
7495;SDS011;3789;47.064;15.482;2023-12-22T00:25:22;2.43;;;1.37;;
7495;SDS011;3789;47.064;15.482;2023-12-22T00:27:49;1.47;;;1.30;;
7495;SDS011;3789;47.064;15.482;2023-12-22T00:30:17;1.50;;;1.40;;
7495;SDS011;3789;47.064;15.482;2023-12-22T00:32:44;1.30;;;1.20;;
7495;SDS011;3789;47.064;15.482;2023-12-22T00:35:12;1.23;;;1.13;;
7495;SDS011;3789;47.064;15.482;2023-12-22T00:37:39;1.20;;;1.10;;
7495;SDS011;3789;47.064;15.482;2023-12-22T00:40:07;1.20;;;1.10;;
7495;SDS011;3789;47.064;15.482;2023-12-22T00:42:36;2.67;;;1.67;;
7495;SDS011;3789;47.064;15.482;2023-12-22T00:45:04;1.30;;;1.20;;
7495;SDS011;3789;47.064;15.482;2023-12-22T00:47:33;1.07;;;0.97;;
7495;SDS011;3789;47.064;15.482;2023-12-22T00:50:03;0.87;;;0.87;;
7495;SDS011;3789;47.064;15.482;2023-12-22T00:52:32;0.90;;;0.90;;
7495;SDS011;3789;47.064;15.482;2023-12-22T00:55:00;1.00;;;1.00;;
7495;SDS011;3789;47.064;15.482;2023-12-22T00:57:27;0.90;;;0.90;;
7495;SDS011;3789;47.064;15.482;2023-12-22T00:59:54;0.90;;;0.90;;
7495;SDS011;3789;47.064;15.482;2023-12-22T01:02:22;0.90;;;0.90;;
7495;SDS011;3789;47.064;15.482;2023-12-22T01:04:49;1.00;;;1.00;;
7495;SDS011;3789;47.064;15.482;2023-12-22T01:07:16;0.80;;;0.80;;
7495;SDS011;3789;47.064;15.482;2023-12-22T01:09:45;1.00;;;1.00;;
7495;SDS011;3789;47.064;15.482;2023-12-22T01:12:12;0.90;;;0.90;;
7495;SDS011;3789;47.064;15.482;2023-12-22T01:14:40;0.90;;;0.90;;
7495;SDS011;3789;47.064;15.482;2023-12-22T01:17:07;1.03;;;0.90;;
7495;SDS011;3789;47.064;15.482;2023-12-22T01:19:35;1.00;;;1.00;;
7495;SDS011;3789;47.064;15.482;2023-12-22T01:22:02;1.03;;;1.00;;
7495;SDS011;3789;47.064;15.482;2023-12-22T01:24:29;1.00;;;1.00;;
7495;SDS011;3789;47.064;15.482;2023-12-22T01:26:57;1.33;;;1.03;;
7495;SDS011;3789;47.064;15.482;2023-12-22T01:29:25;0.90;;;0.90;;
7495;SDS011;3789;47.064;15.482;2023-12-22T01:31:52;1.00;;;1.00;;
7495;SDS011;3789;47.064;15.482;2023-12-22T01:34:19;0.90;;;0.90;;
7495;SDS011;3789;47.064;15.482;2023-12-22T01:36:46;0.90;;;0.90;;
7495;SDS011;3789;47.064;15.482;2023-12-22T01:39:14;0.80;;;0.80;;
7495;SDS011;3789;47.064;15.482;2023-12-22T01:41:42;0.90;;;0.90;;
7495;SDS011;3789;47.064;15.482;2023-12-22T01:44:09;1.00;;;1.00;;
7495;SDS011;3789;47.064;15.482;2023-12-22T01:46:36;1.03;;;0.97;;
7495;SDS011;3789;47.064;15.482;2023-12-22T01:49:04;2.33;;;1.10;;
7495;SDS011;3789;47.064;15.482;2023-12-22T01:51:34;1.00;;;1.00;;
7495;SDS011;3789;47.064;15.482;2023-12-22T01:54:06;0.90;;;0.90;;
7495;SDS011;3789;47.064;15.482;2023-12-22T01:56:33;1.13;;;0.90;;
7495;SDS011;3789;47.064;15.482;2023-12-22T01:59:01;0.90;;;0.90;;
7495;SDS011;3789;47.064;15.482;2023-12-22T02:01:29;1.10;;;1.00;;
7495;SDS011;3789;47.064;15.482;2023-12-22T02:03:56;1.00;;;1.00;;
7495;SDS011;3789;47.064;15.482;2023-12-22T02:06:25;0.90;;;0.90;;
7495;SDS011;3789;47.064;15.482;2023-12-22T02:08:53;0.80;;;0.80;;
7495;SDS011;3789;47.064;15.482;2023-12-22T02:11:21;0.80;;;0.80;;
7495;SDS011;3789;47.064;15.482;2023-12-22T02:14:04;1.00;;;1.00;;
7495;SDS011;3789;47.064;15.482;2023-12-22T02:16:32;1.17;;;1.07;;
7495;SDS011;3789;47.064;15.482;2023-12-22T02:23:15;0.93;;;0.80;;
7495;SDS011;3789;47.064;15.482;2023-12-22T02:25:47;0.90;;;0.90;;
7495;SDS011;3789;47.064;15.482;2023-12-22T02:28:38;0.70;;;0.70;;
7495;SDS011;3789;47.064;15.482;2023-12-22T02:33:52;0.90;;;0.90;;
7495;SDS011;3789;47.064;15.482;2023-12-22T02:36:42;0.80;;;0.80;;
7495;SDS011;3789;47.064;15.482;2023-12-22T02:39:11;0.90;;;0.90;;
7495;SDS011;3789;47.064;15.482;2023-12-22T02:41:43;0.77;;;0.77;;
7495;SDS011;3789;47.064;15.482;2023-12-22T02:44:13;0.80;;;0.80;;
7495;SDS011;3789;47.064;15.482;2023-12-22T02:46:43;0.90;;;0.90;;
7495;SDS011;3789;47.064;15.482;2023-12-22T02:49:24;0.97;;;0.97;;
7495;SDS011;3789;47.064;15.482;2023-12-22T02:52:15;0.80;;;0.80;;
7495;SDS011;3789;47.064;15.482;2023-12-22T02:54:52;0.90;;;0.90;;
7495;SDS011;3789;47.064;15.482;2023-12-22T02:57:34;0.83;;;0.83;;
7495;SDS011;3789;47.064;15.482;2023-12-22T03:00:45;1.00;;;1.00;;
7495;SDS011;3789;47.064;15.482;2023-12-22T03:03:18;0.80;;;0.80;;
7495;SDS011;3789;47.064;15.482;2023-12-22T03:05:54;0.87;;;0.87;;
7495;SDS011;3789;47.064;15.482;2023-12-22T03:08:27;0.90;;;0.90;;
7495;SDS011;3789;47.064;15.482;2023-12-22T03:11:18;1.37;;;1.10;;
7495;SDS011;3789;47.064;15.482;2023-12-22T03:13:52;0.80;;;0.80;;
7495;SDS011;3789;47.064;15.482;2023-12-22T03:16:19;1.43;;;0.90;;
7495;SDS011;3789;47.064;15.482;2023-12-22T03:18:47;0.80;;;0.80;;
7495;SDS011;3789;47.064;15.482;2023-12-22T03:21:54;0.90;;;0.90;;
7495;SDS011;3789;47.064;15.482;2023-12-22T03:24:43;0.90;;;0.90;;
7495;SDS011;3789;47.064;15.482;2023-12-22T03:27:17;0.90;;;0.90;;
7495;SDS011;3789;47.064;15.482;2023-12-22T03:29:56;0.90;;;0.90;;
7495;SDS011;3789;47.064;15.482;2023-12-22T03:32:26;0.97;;;0.97;;
7495;SDS011;3789;47.064;15.482;2023-12-22T03:34:57;0.90;;;0.90;;
7495;SDS011;3789;47.064;15.482;2023-12-22T03:37:24;0.90;;;0.90;;
7495;SDS011;3789;47.064;15.482;2023-12-22T03:40:24;0.90;;;0.90;;
7495;SDS011;3789;47.064;15.482;2023-12-22T03:43:03;0.80;;;0.80;;
7495;SDS011;3789;47.064;15.482;2023-12-22T03:45:42;0.80;;;0.80;;
7495;SDS011;3789;47.064;15.482;2023-12-22T03:48:12;1.00;;;1.00;;
7495;SDS011;3789;47.064;15.482;2023-12-22T03:50:51;1.00;;;1.00;;
7495;SDS011;3789;47.064;15.482;2023-12-22T03:53:19;0.90;;;0.90;;
7495;SDS011;3789;47.064;15.482;2023-12-22T03:55:58;0.97;;;0.97;;
7495;SDS011;3789;47.064;15.482;2023-12-22T03:58:38;1.00;;;1.00;;
7495;SDS011;3789;47.064;15.482;2023-12-22T04:01:05;1.00;;;1.00;;
7495;SDS011;3789;47.064;15.482;2023-12-22T04:03:38;1.00;;;1.00;;
7495;SDS011;3789;47.064;15.482;2023-12-22T04:06:39;1.00;;;1.00;;
7495;SDS011;3789;47.064;15.482;2023-12-22T04:09:13;0.80;;;0.80;;
7495;SDS011;3789;47.064;15.482;2023-12-22T04:12:19;0.90;;;0.90;;
7495;SDS011;3789;47.064;15.482;2023-12-22T04:14:46;1.10;;;1.10;;
7495;SDS011;3789;47.064;15.482;2023-12-22T04:17:16;0.90;;;0.90;;
7495;SDS011;3789;47.064;15.482;2023-12-22T04:19:43;1.00;;;1.00;;
7495;SDS011;3789;47.064;15.482;2023-12-22T04:22:14;1.00;;;1.00;;
7495;SDS011;3789;47.064;15.482;2023-12-22T04:24:56;1.00;;;1.00;;
7495;SDS011;3789;47.064;15.482;2023-12-22T04:30:21;0.90;;;0.90;;
7495;SDS011;3789;47.064;15.482;2023-12-22T04:32:48;0.90;;;0.90;;
7495;SDS011;3789;47.064;15.482;2023-12-22T04:35:19;1.07;;;0.97;;
7495;SDS011;3789;47.064;15.482;2023-12-22T04:37:49;1.20;;;0.93;;
7495;SDS011;3789;47.064;15.482;2023-12-22T04:40:17;0.90;;;0.90;;
7495;SDS011;3789;47.064;15.482;2023-12-22T04:42:44;1.00;;;1.00;;
7495;SDS011;3789;47.064;15.482;2023-12-22T04:45:36;0.93;;;0.93;;
7495;SDS011;3789;47.064;15.482;2023-12-22T04:48:32;1.00;;;1.00;;
7495;SDS011;3789;47.064;15.482;2023-12-22T04:51:08;1.00;;;1.00;;
7495;SDS011;3789;47.064;15.482;2023-12-22T04:56:54;0.90;;;0.90;;
7495;SDS011;3789;47.064;15.482;2023-12-22T04:59:34;1.00;;;1.00;;
7495;SDS011;3789;47.064;15.482;2023-12-22T05:02:05;0.90;;;0.90;;
7495;SDS011;3789;47.064;15.482;2023-12-22T05:04:44;0.93;;;0.93;;
7495;SDS011;3789;47.064;15.482;2023-12-22T05:07:59;1.07;;;1.07;;
7495;SDS011;3789;47.064;15.482;2023-12-22T05:10:26;1.10;;;1.10;;
7495;SDS011;3789;47.064;15.482;2023-12-22T05:12:57;0.90;;;0.90;;
7495;SDS011;3789;47.064;15.482;2023-12-22T05:15:24;0.80;;;0.80;;
7495;SDS011;3789;47.064;15.482;2023-12-22T05:18:13;0.90;;;0.90;;
7495;SDS011;3789;47.064;15.482;2023-12-22T05:20:46;1.70;;;1.10;;
7495;SDS011;3789;47.064;15.482;2023-12-22T05:23:22;1.00;;;1.00;;
7495;SDS011;3789;47.064;15.482;2023-12-22T05:26:02;1.00;;;1.00;;
7495;SDS011;3789;47.064;15.482;2023-12-22T05:28:30;1.00;;;1.00;;
7495;SDS011;3789;47.064;15.482;2023-12-22T05:30:57;1.20;;;1.10;;
7495;SDS011;3789;47.064;15.482;2023-12-22T05:33:24;1.30;;;1.20;;
7495;SDS011;3789;47.064;15.482;2023-12-22T05:36:16;1.00;;;1.00;;
7495;SDS011;3789;47.064;15.482;2023-12-22T05:39:02;0.90;;;0.90;;
7495;SDS011;3789;47.064;15.482;2023-12-22T05:41:37;1.10;;;1.10;;
7495;SDS011;3789;47.064;15.482;2023-12-22T05:44:04;1.27;;;1.10;;
7495;SDS011;3789;47.064;15.482;2023-12-22T05:46:58;1.00;;;1.00;;
7495;SDS011;3789;47.064;15.482;2023-12-22T05:49:28;1.23;;;1.20;;
7495;SDS011;3789;47.064;15.482;2023-12-22T05:52:08;1.10;;;1.10;;
7495;SDS011;3789;47.064;15.482;2023-12-22T05:54:47;1.10;;;1.10;;
7495;SDS011;3789;47.064;15.482;2023-12-22T05:57:15;1.20;;;1.10;;
7495;SDS011;3789;47.064;15.482;2023-12-22T05:59:43;2.40;;;1.20;;
7495;SDS011;3789;47.064;15.482;2023-12-22T06:02:16;1.20;;;1.10;;
7495;SDS011;3789;47.064;15.482;2023-12-22T06:04:56;1.03;;;1.03;;
7495;SDS011;3789;47.064;15.482;2023-12-22T06:07:26;1.00;;;1.00;;
7495;SDS011;3789;47.064;15.482;2023-12-22T06:10:02;1.07;;;1.07;;
7495;SDS011;3789;47.064;15.482;2023-12-22T06:12:42;1.00;;;1.00;;
7495;SDS011;3789;47.064;15.482;2023-12-22T06:15:21;0.90;;;0.90;;
7495;SDS011;3789;47.064;15.482;2023-12-22T06:17:51;1.00;;;1.00;;
7495;SDS011;3789;47.064;15.482;2023-12-22T06:20:21;1.00;;;1.00;;
7495;SDS011;3789;47.064;15.482;2023-12-22T06:23:09;1.20;;;1.10;;
7495;SDS011;3789;47.064;15.482;2023-12-22T06:25:42;1.10;;;1.10;;
7495;SDS011;3789;47.064;15.482;2023-12-22T06:28:46;1.10;;;1.00;;
7495;SDS011;3789;47.064;15.482;2023-12-22T06:31:26;1.00;;;1.00;;
7495;SDS011;3789;47.064;15.482;2023-12-22T06:33:56;1.27;;;1.17;;
7495;SDS011;3789;47.064;15.482;2023-12-22T06:36:44;1.10;;;1.10;;
7495;SDS011;3789;47.064;15.482;2023-12-22T06:39:43;0.97;;;0.97;;
7495;SDS011;3789;47.064;15.482;2023-12-22T06:42:47;1.10;;;1.10;;
7495;SDS011;3789;47.064;15.482;2023-12-22T06:45:20;1.03;;;1.03;;
7495;SDS011;3789;47.064;15.482;2023-12-22T06:47:50;1.20;;;1.10;;
7495;SDS011;3789;47.064;15.482;2023-12-22T06:50:32;2.10;;;1.10;;
7495;SDS011;3789;47.064;15.482;2023-12-22T06:53:07;1.00;;;1.00;;
7495;SDS011;3789;47.064;15.482;2023-12-22T06:55:53;1.13;;;1.00;;
7495;SDS011;3789;47.064;15.482;2023-12-22T06:58:20;1.30;;;1.20;;
7495;SDS011;3789;47.064;15.482;2023-12-22T07:00:48;1.00;;;1.00;;
7495;SDS011;3789;47.064;15.482;2023-12-22T07:03:22;1.23;;;1.13;;
7495;SDS011;3789;47.064;15.482;2023-12-22T07:05:49;1.33;;;1.23;;
7495;SDS011;3789;47.064;15.482;2023-12-22T07:08:27;1.30;;;1.20;;
7495;SDS011;3789;47.064;15.482;2023-12-22T07:10:54;1.30;;;1.20;;
7495;SDS011;3789;47.064;15.482;2023-12-22T07:13:27;1.20;;;1.10;;
7495;SDS011;3789;47.064;15.482;2023-12-22T07:16:15;1.00;;;1.00;;
7495;SDS011;3789;47.064;15.482;2023-12-22T07:18:49;1.37;;;1.20;;
7495;SDS011;3789;47.064;15.482;2023-12-22T07:21:19;1.40;;;1.30;;
7495;SDS011;3789;47.064;15.482;2023-12-22T07:24:15;1.10;;;1.10;;
7495;SDS011;3789;47.064;15.482;2023-12-22T07:26:53;1.10;;;1.10;;
7495;SDS011;3789;47.064;15.482;2023-12-22T07:29:30;1.30;;;1.20;;
7495;SDS011;3789;47.064;15.482;2023-12-22T07:32:09;1.20;;;1.10;;
7495;SDS011;3789;47.064;15.482;2023-12-22T07:34:40;1.30;;;1.20;;
7495;SDS011;3789;47.064;15.482;2023-12-22T07:37:14;1.10;;;1.10;;
7495;SDS011;3789;47.064;15.482;2023-12-22T07:39:41;1.00;;;1.00;;
7495;SDS011;3789;47.064;15.482;2023-12-22T07:42:30;1.10;;;1.10;;
7495;SDS011;3789;47.064;15.482;2023-12-22T07:45:17;1.10;;;1.10;;
7495;SDS011;3789;47.064;15.482;2023-12-22T07:47:47;2.10;;;1.37;;
7495;SDS011;3789;47.064;15.482;2023-12-22T07:50:15;1.43;;;1.33;;
7495;SDS011;3789;47.064;15.482;2023-12-22T07:52:52;1.50;;;1.40;;
7495;SDS011;3789;47.064;15.482;2023-12-22T07:55:19;1.53;;;1.43;;
7495;SDS011;3789;47.064;15.482;2023-12-22T07:57:47;2.50;;;1.50;;
7495;SDS011;3789;47.064;15.482;2023-12-22T08:00:14;1.70;;;1.60;;
7495;SDS011;3789;47.064;15.482;2023-12-22T08:02:42;2.57;;;1.43;;
7495;SDS011;3789;47.064;15.482;2023-12-22T08:05:13;1.60;;;1.43;;
7495;SDS011;3789;47.064;15.482;2023-12-22T08:07:40;1.20;;;1.10;;
7495;SDS011;3789;47.064;15.482;2023-12-22T08:10:08;1.40;;;1.30;;
7495;SDS011;3789;47.064;15.482;2023-12-22T08:12:35;1.70;;;1.60;;
7495;SDS011;3789;47.064;15.482;2023-12-22T08:15:02;1.50;;;1.40;;
7495;SDS011;3789;47.064;15.482;2023-12-22T08:17:30;1.60;;;1.50;;
7495;SDS011;3789;47.064;15.482;2023-12-22T08:19:58;1.40;;;1.30;;
7495;SDS011;3789;47.064;15.482;2023-12-22T08:22:36;2.00;;;1.57;;
7495;SDS011;3789;47.064;15.482;2023-12-22T08:25:04;1.50;;;1.40;;
7495;SDS011;3789;47.064;15.482;2023-12-22T08:27:32;2.33;;;1.53;;
7495;SDS011;3789;47.064;15.482;2023-12-22T08:30:00;3.20;;;1.50;;
7495;SDS011;3789;47.064;15.482;2023-12-22T08:32:27;1.60;;;1.50;;
7495;SDS011;3789;47.064;15.482;2023-12-22T08:34:55;1.50;;;1.30;;
7495;SDS011;3789;47.064;15.482;2023-12-22T08:37:22;1.57;;;1.30;;
7495;SDS011;3789;47.064;15.482;2023-12-22T08:39:49;1.40;;;1.30;;
7495;SDS011;3789;47.064;15.482;2023-12-22T08:42:17;1.50;;;1.40;;
7495;SDS011;3789;47.064;15.482;2023-12-22T08:44:45;1.87;;;1.70;;
7495;SDS011;3789;47.064;15.482;2023-12-22T08:47:12;1.50;;;1.40;;
7495;SDS011;3789;47.064;15.482;2023-12-22T08:49:39;1.60;;;1.50;;
7495;SDS011;3789;47.064;15.482;2023-12-22T08:52:06;1.57;;;1.47;;
7495;SDS011;3789;47.064;15.482;2023-12-22T08:54:34;1.30;;;1.20;;
7495;SDS011;3789;47.064;15.482;2023-12-22T08:57:02;1.53;;;1.33;;
7495;SDS011;3789;47.064;15.482;2023-12-22T08:59:29;1.30;;;1.20;;
7495;SDS011;3789;47.064;15.482;2023-12-22T09:01:57;1.40;;;1.30;;
7495;SDS011;3789;47.064;15.482;2023-12-22T09:04:24;1.60;;;1.40;;
7495;SDS011;3789;47.064;15.482;2023-12-22T09:06:51;1.47;;;1.20;;
7495;SDS011;3789;47.064;15.482;2023-12-22T09:09:19;1.60;;;1.50;;
7495;SDS011;3789;47.064;15.482;2023-12-22T09:11:48;1.63;;;1.40;;
7495;SDS011;3789;47.064;15.482;2023-12-22T09:14:15;1.73;;;1.63;;
7495;SDS011;3789;47.064;15.482;2023-12-22T09:16:43;1.67;;;1.57;;
7495;SDS011;3789;47.064;15.482;2023-12-22T09:19:12;1.37;;;1.20;;
7495;SDS011;3789;47.064;15.482;2023-12-22T09:21:39;2.60;;;1.40;;
7495;SDS011;3789;47.064;15.482;2023-12-22T09:24:07;1.63;;;1.53;;
7495;SDS011;3789;47.064;15.482;2023-12-22T09:26:34;1.83;;;1.30;;
7495;SDS011;3789;47.064;15.482;2023-12-22T09:29:01;1.27;;;1.20;;
7495;SDS011;3789;47.064;15.482;2023-12-22T09:31:29;3.77;;;1.60;;
7495;SDS011;3789;47.064;15.482;2023-12-22T09:33:56;1.30;;;1.20;;
7495;SDS011;3789;47.064;15.482;2023-12-22T09:36:23;1.40;;;1.30;;
7495;SDS011;3789;47.064;15.482;2023-12-22T09:38:50;1.40;;;1.30;;
7495;SDS011;3789;47.064;15.482;2023-12-22T09:41:18;1.30;;;1.20;;
7495;SDS011;3789;47.064;15.482;2023-12-22T09:43:46;1.13;;;1.10;;
7495;SDS011;3789;47.064;15.482;2023-12-22T09:46:16;1.40;;;1.30;;
7495;SDS011;3789;47.064;15.482;2023-12-22T09:48:48;1.40;;;1.30;;
7495;SDS011;3789;47.064;15.482;2023-12-22T09:51:18;1.60;;;1.30;;
7495;SDS011;3789;47.064;15.482;2023-12-22T09:53:46;1.20;;;1.20;;
7495;SDS011;3789;47.064;15.482;2023-12-22T09:56:15;1.20;;;1.20;;
7495;SDS011;3789;47.064;15.482;2023-12-22T09:58:45;1.10;;;1.10;;
7495;SDS011;3789;47.064;15.482;2023-12-22T10:01:13;1.20;;;1.10;;
7495;SDS011;3789;47.064;15.482;2023-12-22T10:03:42;1.10;;;1.10;;
7495;SDS011;3789;47.064;15.482;2023-12-22T10:06:13;1.33;;;1.23;;
7495;SDS011;3789;47.064;15.482;2023-12-22T10:08:44;1.37;;;1.27;;
7495;SDS011;3789;47.064;15.482;2023-12-22T10:11:13;1.50;;;1.40;;
7495;SDS011;3789;47.064;15.482;2023-12-22T10:13:42;1.93;;;1.57;;
7495;SDS011;3789;47.064;15.482;2023-12-22T10:16:10;1.40;;;1.30;;
7495;SDS011;3789;47.064;15.482;2023-12-22T10:18:37;1.17;;;1.10;;
7495;SDS011;3789;47.064;15.482;2023-12-22T10:21:04;1.70;;;1.50;;
7495;SDS011;3789;47.064;15.482;2023-12-22T10:23:32;1.93;;;1.47;;
7495;SDS011;3789;47.064;15.482;2023-12-22T10:25:59;1.97;;;1.77;;
7495;SDS011;3789;47.064;15.482;2023-12-22T10:28:27;1.43;;;1.33;;
7495;SDS011;3789;47.064;15.482;2023-12-22T10:30:54;1.50;;;1.40;;
7495;SDS011;3789;47.064;15.482;2023-12-22T10:33:26;1.20;;;1.10;;
7495;SDS011;3789;47.064;15.482;2023-12-22T10:35:53;1.90;;;1.73;;
7495;SDS011;3789;47.064;15.482;2023-12-22T10:38:20;1.57;;;1.47;;
7495;SDS011;3789;47.064;15.482;2023-12-22T10:40:49;3.13;;;1.67;;
7495;SDS011;3789;47.064;15.482;2023-12-22T10:43:17;1.73;;;1.50;;
7495;SDS011;3789;47.064;15.482;2023-12-22T10:45:45;2.00;;;1.60;;
7495;SDS011;3789;47.064;15.482;2023-12-22T10:48:12;1.60;;;1.50;;
7495;SDS011;3789;47.064;15.482;2023-12-22T10:50:40;1.37;;;1.27;;
7495;SDS011;3789;47.064;15.482;2023-12-22T10:53:08;1.20;;;1.20;;
7495;SDS011;3789;47.064;15.482;2023-12-22T10:55:42;1.37;;;1.23;;
7495;SDS011;3789;47.064;15.482;2023-12-22T10:58:09;1.40;;;1.30;;
7495;SDS011;3789;47.064;15.482;2023-12-22T11:00:37;1.40;;;1.30;;
7495;SDS011;3789;47.064;15.482;2023-12-22T11:03:07;1.37;;;1.27;;
7495;SDS011;3789;47.064;15.482;2023-12-22T11:05:39;1.33;;;1.23;;
7495;SDS011;3789;47.064;15.482;2023-12-22T11:08:12;1.10;;;1.10;;
7495;SDS011;3789;47.064;15.482;2023-12-22T11:10:44;2.30;;;2.00;;
7495;SDS011;3789;47.064;15.482;2023-12-22T11:13:13;1.67;;;1.57;;
7495;SDS011;3789;47.064;15.482;2023-12-22T11:15:41;3.40;;;2.77;;
7495;SDS011;3789;47.064;15.482;2023-12-22T11:18:10;1.83;;;1.60;;
7495;SDS011;3789;47.064;15.482;2023-12-22T11:20:38;1.97;;;1.83;;
7495;SDS011;3789;47.064;15.482;2023-12-22T11:23:07;2.03;;;1.90;;
7495;SDS011;3789;47.064;15.482;2023-12-22T11:25:37;4.57;;;3.30;;
7495;SDS011;3789;47.064;15.482;2023-12-22T11:28:05;4.33;;;3.30;;
7495;SDS011;3789;47.064;15.482;2023-12-22T11:30:33;5.00;;;4.00;;
7495;SDS011;3789;47.064;15.482;2023-12-22T11:33:04;5.67;;;3.90;;
7495;SDS011;3789;47.064;15.482;2023-12-22T11:35:32;4.57;;;3.20;;
7495;SDS011;3789;47.064;15.482;2023-12-22T11:38:01;4.70;;;2.70;;
7495;SDS011;3789;47.064;15.482;2023-12-22T11:40:30;2.53;;;2.17;;
7495;SDS011;3789;47.064;15.482;2023-12-22T11:42:58;3.23;;;1.90;;
7495;SDS011;3789;47.064;15.482;2023-12-22T11:45:31;2.50;;;2.07;;
7495;SDS011;3789;47.064;15.482;2023-12-22T11:48:06;3.20;;;2.40;;
7495;SDS011;3789;47.064;15.482;2023-12-22T11:50:35;2.67;;;2.10;;
7495;SDS011;3789;47.064;15.482;2023-12-22T11:55:57;6.80;;;3.03;;
7495;SDS011;3789;47.064;15.482;2023-12-22T11:58:45;5.33;;;2.90;;
7495;SDS011;3789;47.064;15.482;2023-12-22T12:01:26;3.53;;;2.83;;
7495;SDS011;3789;47.064;15.482;2023-12-22T12:04:03;2.77;;;2.50;;
7495;SDS011;3789;47.064;15.482;2023-12-22T12:06:34;3.13;;;2.80;;
7495;SDS011;3789;47.064;15.482;2023-12-22T12:09:05;4.63;;;3.00;;
7495;SDS011;3789;47.064;15.482;2023-12-22T12:12:23;3.47;;;3.17;;
7495;SDS011;3789;47.064;15.482;2023-12-22T12:14:35;4.30;;;2.80;;
7495;SDS011;3789;47.064;15.482;2023-12-22T12:17:08;2.40;;;2.20;;
7495;SDS011;3789;47.064;15.482;2023-12-22T12:19:37;2.43;;;2.23;;
7495;SDS011;3789;47.064;15.482;2023-12-22T12:22:07;2.13;;;1.90;;
7495;SDS011;3789;47.064;15.482;2023-12-22T12:24:36;1.43;;;1.33;;
7495;SDS011;3789;47.064;15.482;2023-12-22T12:27:06;1.63;;;1.50;;
7495;SDS011;3789;47.064;15.482;2023-12-22T12:29:42;1.50;;;1.40;;
7495;SDS011;3789;47.064;15.482;2023-12-22T12:32:10;1.57;;;1.40;;
7495;SDS011;3789;47.064;15.482;2023-12-22T12:34:44;1.37;;;1.27;;
7495;SDS011;3789;47.064;15.482;2023-12-22T12:37:13;1.43;;;1.30;;
7495;SDS011;3789;47.064;15.482;2023-12-22T12:39:43;1.50;;;1.37;;
7495;SDS011;3789;47.064;15.482;2023-12-22T12:42:14;1.43;;;1.33;;
7495;SDS011;3789;47.064;15.482;2023-12-22T12:44:43;1.33;;;1.23;;
7495;SDS011;3789;47.064;15.482;2023-12-22T12:47:12;1.40;;;1.30;;
7495;SDS011;3789;47.064;15.482;2023-12-22T12:49:41;1.40;;;1.30;;
7495;SDS011;3789;47.064;15.482;2023-12-22T12:52:13;1.90;;;1.70;;
7495;SDS011;3789;47.064;15.482;2023-12-22T12:54:41;2.93;;;2.10;;
7495;SDS011;3789;47.064;15.482;2023-12-22T12:57:13;2.23;;;1.80;;
7495;SDS011;3789;47.064;15.482;2023-12-22T12:59:48;2.97;;;1.60;;
7495;SDS011;3789;47.064;15.482;2023-12-22T13:02:22;2.80;;;1.50;;
7495;SDS011;3789;47.064;15.482;2023-12-22T13:04:54;1.53;;;1.40;;
7495;SDS011;3789;47.064;15.482;2023-12-22T13:07:29;1.50;;;1.40;;
7495;SDS011;3789;47.064;15.482;2023-12-22T13:10:00;1.93;;;1.70;;
7495;SDS011;3789;47.064;15.482;2023-12-22T13:12:32;3.13;;;2.40;;
7495;SDS011;3789;47.064;15.482;2023-12-22T13:15:04;2.63;;;2.27;;
7495;SDS011;3789;47.064;15.482;2023-12-22T13:17:36;2.77;;;2.23;;
7495;SDS011;3789;47.064;15.482;2023-12-22T13:20:11;3.90;;;2.00;;
7495;SDS011;3789;47.064;15.482;2023-12-22T13:22:45;2.13;;;1.70;;
7495;SDS011;3789;47.064;15.482;2023-12-22T13:25:20;4.00;;;1.67;;
7495;SDS011;3789;47.064;15.482;2023-12-22T13:28:04;1.50;;;1.40;;
7495;SDS011;3789;47.064;15.482;2023-12-22T13:30:35;2.03;;;1.57;;
7495;SDS011;3789;47.064;15.482;2023-12-22T13:33:11;1.50;;;1.40;;
7495;SDS011;3789;47.064;15.482;2023-12-22T13:35:39;1.83;;;1.73;;
7495;SDS011;3789;47.064;15.482;2023-12-22T13:38:09;1.57;;;1.47;;
7495;SDS011;3789;47.064;15.482;2023-12-22T13:40:38;1.57;;;1.47;;
7495;SDS011;3789;47.064;15.482;2023-12-22T13:43:12;1.60;;;1.47;;
7495;SDS011;3789;47.064;15.482;2023-12-22T13:45:39;1.50;;;1.30;;
7495;SDS011;3789;47.064;15.482;2023-12-22T13:48:07;2.03;;;1.40;;
7495;SDS011;3789;47.064;15.482;2023-12-22T13:50:35;1.50;;;1.40;;
7495;SDS011;3789;47.064;15.482;2023-12-22T13:53:09;1.97;;;1.50;;
7495;SDS011;3789;47.064;15.482;2023-12-22T13:55:38;1.70;;;1.60;;
7495;SDS011;3789;47.064;15.482;2023-12-22T13:58:06;2.40;;;1.80;;
7495;SDS011;3789;47.064;15.482;2023-12-22T14:00:34;1.73;;;1.57;;
7495;SDS011;3789;47.064;15.482;2023-12-22T14:03:01;1.87;;;1.77;;
7495;SDS011;3789;47.064;15.482;2023-12-22T14:05:30;2.07;;;1.47;;
7495;SDS011;3789;47.064;15.482;2023-12-22T14:08:01;2.50;;;1.80;;
7495;SDS011;3789;47.064;15.482;2023-12-22T14:10:32;1.93;;;1.83;;
7495;SDS011;3789;47.064;15.482;2023-12-22T14:12:59;2.20;;;2.00;;
7495;SDS011;3789;47.064;15.482;2023-12-22T14:15:26;2.57;;;1.97;;
7495;SDS011;3789;47.064;15.482;2023-12-22T14:18:09;2.03;;;1.83;;
7495;SDS011;3789;47.064;15.482;2023-12-22T14:20:37;2.57;;;1.90;;
7495;SDS011;3789;47.064;15.482;2023-12-22T14:23:04;2.37;;;1.73;;
7495;SDS011;3789;47.064;15.482;2023-12-22T14:25:35;2.00;;;1.80;;
7495;SDS011;3789;47.064;15.482;2023-12-22T14:28:03;2.00;;;1.90;;
7495;SDS011;3789;47.064;15.482;2023-12-22T14:30:30;2.40;;;1.87;;
7495;SDS011;3789;47.064;15.482;2023-12-22T14:32:58;6.40;;;3.33;;
7495;SDS011;3789;47.064;15.482;2023-12-22T14:35:26;3.27;;;2.97;;
7495;SDS011;3789;47.064;15.482;2023-12-22T14:37:56;3.57;;;3.20;;
7495;SDS011;3789;47.064;15.482;2023-12-22T14:40:24;4.03;;;3.13;;
7495;SDS011;3789;47.064;15.482;2023-12-22T14:42:52;3.13;;;2.60;;
7495;SDS011;3789;47.064;15.482;2023-12-22T14:45:23;2.67;;;2.47;;
7495;SDS011;3789;47.064;15.482;2023-12-22T14:47:51;3.47;;;2.50;;
7495;SDS011;3789;47.064;15.482;2023-12-22T14:50:20;3.20;;;2.90;;
7495;SDS011;3789;47.064;15.482;2023-12-22T14:52:52;4.30;;;3.10;;
7495;SDS011;3789;47.064;15.482;2023-12-22T14:55:20;3.63;;;2.90;;
7495;SDS011;3789;47.064;15.482;2023-12-22T14:57:48;2.80;;;2.50;;
7495;SDS011;3789;47.064;15.482;2023-12-22T15:00:16;3.50;;;2.80;;
7495;SDS011;3789;47.064;15.482;2023-12-22T15:02:45;2.10;;;1.90;;
7495;SDS011;3789;47.064;15.482;2023-12-22T15:05:15;4.23;;;2.30;;
7495;SDS011;3789;47.064;15.482;2023-12-22T15:07:44;2.37;;;2.17;;
7495;SDS011;3789;47.064;15.482;2023-12-22T15:10:12;2.90;;;2.33;;
7495;SDS011;3789;47.064;15.482;2023-12-22T15:12:41;2.37;;;1.90;;
7495;SDS011;3789;47.064;15.482;2023-12-22T15:15:09;2.23;;;1.90;;
7495;SDS011;3789;47.064;15.482;2023-12-22T15:17:37;2.30;;;2.10;;
7495;SDS011;3789;47.064;15.482;2023-12-22T15:20:04;3.07;;;2.70;;
7495;SDS011;3789;47.064;15.482;2023-12-22T15:22:38;4.80;;;3.33;;
7495;SDS011;3789;47.064;15.482;2023-12-22T15:25:10;3.77;;;3.20;;
7495;SDS011;3789;47.064;15.482;2023-12-22T15:27:38;3.90;;;3.43;;
7495;SDS011;3789;47.064;15.482;2023-12-22T15:30:06;5.53;;;3.50;;
7495;SDS011;3789;47.064;15.482;2023-12-22T15:32:35;4.03;;;3.13;;
7495;SDS011;3789;47.064;15.482;2023-12-22T15:35:02;3.80;;;3.20;;
7495;SDS011;3789;47.064;15.482;2023-12-22T15:37:30;3.50;;;2.90;;
7495;SDS011;3789;47.064;15.482;2023-12-22T15:40:01;5.43;;;4.87;;
7495;SDS011;3789;47.064;15.482;2023-12-22T15:42:32;6.27;;;5.63;;
7495;SDS011;3789;47.064;15.482;2023-12-22T15:45:01;4.90;;;4.37;;